Marcus, IA (51035)

7:39 AM CDT on August 29, 2015 (GMT -0500)
Cherokee Municipal | | Change Station
CLOSE
Current Station
Airport
Location: Cherokee,
Elevation: 1227 ft
Nearby Weather Stations
Active Advisory: Special Statement

Elev 1227 ft 42.73 °N, 95.56 °W | Updated 24 minutes ago

Overcast
Overcast
57 °F
Feels Like 57 °F
N
4
Wind Variable Wind from NE

Today
High -- | Low -- °F
--% Chance of Precip.
Yesterday
High -- | Low -- °F
Precip. -- in
6:44 AM 8:03 PM
Full, 100% visible
Pressure 30.06 in
Visibility 3.0 miles
Clouds Overcast 500 ft
Dew Point 57 °F
Humidity 100%
Rainfall 0.00 in
Snow Depth Not available.
UV 0 out of 12
Pollen 9.40 out of 12
Air Quality Not available.
Flu Activity Not available.
METAR KCKP 291215Z AUTO 04003KT 3SM BR OVC005 14/14 A3006 RMK AO2 T01410141
Pressure 30.06 in
Visibility 3.0 miles
Clouds Overcast 500 ft
Dew Point 57 °F
Humidity 100%
Rainfall 0.00 in
Snow Depth Not available.
UV 0 out of 12
Pollen 9.40 out of 12
Air Quality Not available.
Flu Activity Not available.
METAR KCKP 291215Z AUTO 04003KT 3SM BR OVC005 14/14 A3006 RMK AO2 T01410141

10-Day Weather Forecast

×

Almanac

Astronomy

Aug. 29, 2015 Rise Set
Actual Time
Civil Twilight
Nautical Twilight
Astronomical Twilight
Moon
Length of Visible Light
Length of Day
Tomorrow will be .
, % of the Moon is Illuminated

Today's Extremes

State Highs State Lows

Community

WunderPhotos

Upload Photos

1,850,676 photos uploaded!

WunderBlogs® & News

Nearby

Air Quality

  Air Quality AQ Index Pollutant
Not available.

Snow Depth

Station Depth Elevation

Earthquake Activity

City Distance Mag. Time & Date
Minimum magnitude displayed is 2.5.

Coastal Water Temperatures

Place Temperature

Stations

Nearby Weather Stations

Station Location Temp. Windchill Dew Point Humidity Wind Precip. Elev Updated Type
                   
Special Statement
Statement as of 5:32 AM CDT on August 29, 2015

... Special Weather Statement...

Areas of fog with visibilities of a half a mile or less have
developed across the area. Fog is expected to dissipate after 9
am. Drivers should use caution if traveling this morning.


532 am CDT Sat Aug 29 2015

... Special Weather Statement...

Areas of fog with visibilities of a half a mile or less have
developed across the area. Fog is expected to dissipate after 9
am. Drivers should use caution if traveling this morning.